Time;durP1;ratioP1;P1;durP2;ratioP2;P2;SDS_P1;SDS_P2;PMS_P1;PMS_P2;Temp;Humidity;BMP_temperature;BMP_pressure;BME280_temperature;BME280_humidity;BME280_pressure;Samples;Min_cycle;Max_cycle;Signal;HPM_P1;HPM_P2
2022/06/28 00:00:59;;;;;;;;;;;24.80;58.00;;;;;;6116059;23;19925;-80
2022/06/28 00:03:29;;;;;;;;;;;24.80;58.10;;;;;;6100270;23;19928;-79
2022/06/28 00:05:56;;;;;;;;;;;24.90;58.00;;;;;;6116466;23;19925;-80
2022/06/28 00:08:26;;;;;;;;;;;24.90;58.00;;;;;;6098150;23;19921;-80
2022/06/28 00:10:52;;;;;;;;;;;24.90;58.00;;;;;;6116947;23;20004;-80
2022/06/28 00:13:21;;;;;;;;;;;24.90;58.10;;;;;;6098547;23;19927;-80
2022/06/28 00:16:06;;;;;;;;;;;24.90;58.10;;;;;;6118025;23;19928;-80
2022/06/28 00:18:36;;;;;;;;;;;24.90;57.80;;;;;;6101027;23;20298;-80
2022/06/28 00:21:06;;;;;;;;;;;24.90;58.20;;;;;;6113555;23;20255;-80
2022/06/28 00:23:34;;;;;;;;;;;24.90;58.40;;;;;;6124377;23;19920;-80
2022/06/28 00:26:01;;;;;;;;;;;24.80;58.30;;;;;;6113849;23;19950;-80
2022/06/28 00:28:28;;;;;;;;;;;24.80;58.70;;;;;;6097735;23;19931;-79
2022/06/28 00:30:54;;;;;;;;;;;24.80;59.60;;;;;;6115084;23;19973;-80
2022/06/28 00:33:21;;;;;;;;;;;24.80;58.30;;;;;;6095853;23;19921;-80
2022/06/28 00:35:48;;;;;;;;;;;24.80;58.20;;;;;;6125164;23;19920;-80
2022/06/28 00:38:16;;;;;;;;;;;24.80;58.60;;;;;;6111103;23;20338;-80
2022/06/28 00:40:50;;;;;;;;;;;24.70;58.70;;;;;;6118384;23;20373;-80
2022/06/28 00:43:17;;;;;;;;;;;24.70;58.40;;;;;;6095062;23;20302;-80
2022/06/28 00:45:45;;;;;;;;;;;24.70;58.70;;;;;;6112111;23;20019;-81
2022/06/28 00:48:12;;;;;;;;;;;24.70;58.50;;;;;;6090540;23;19922;-80
2022/06/28 00:50:39;;;;;;;;;;;24.70;58.20;;;;;;6089362;23;19921;-80
2022/06/28 00:53:08;;;;;;;;;;;24.70;58.00;;;;;;6090013;23;19921;-80
2022/06/28 00:55:34;;;;;;;;;;;24.70;58.50;;;;;;6089100;23;20000;-80
2022/06/28 00:58:01;;;;;;;;;;;24.70;58.30;;;;;;6067769;23;19921;-80
2022/06/28 01:00:29;;;;;;;;;;;24.70;58.50;;;;;;6065283;23;19977;-80
2022/06/28 01:02:56;;;;;;;;;;;24.70;58.50;;;;;;6088876;23;19945;-80
2022/06/28 01:05:23;;;;;;;;;;;24.70;58.50;;;;;;6089285;23;19928;-80
2022/06/28 01:07:50;;;;;;;;;;;24.70;58.30;;;;;;6089924;23;19926;-79
2022/06/28 01:10:16;;;;;;;;;;;24.80;58.20;;;;;;6089257;23;19925;-80
2022/06/28 01:12:43;;;;;;;;;;;24.70;58.10;;;;;;6089894;23;19962;-80
2022/06/28 01:15:10;;;;;;;;;;;24.80;58.00;;;;;;6090273;23;19941;-80
2022/06/28 01:17:37;;;;;;;;;;;24.70;58.20;;;;;;6088657;23;19929;-79
2022/06/28 01:20:04;;;;;;;;;;;24.80;57.70;;;;;;6089729;23;19921;-80
2022/06/28 01:22:36;;;;;;;;;;;24.80;57.70;;;;;;6088907;23;19925;-79
2022/06/28 01:25:04;;;;;;;;;;;24.80;57.70;;;;;;6089000;23;20254;-80
2022/06/28 01:27:31;;;;;;;;;;;24.80;57.70;;;;;;6088497;23;19925;-79
2022/06/28 01:29:57;;;;;;;;;;;24.80;57.80;;;;;;6089883;23;19921;-80
2022/06/28 01:32:26;;;;;;;;;;;24.80;57.50;;;;;;6088811;23;19921;-80
2022/06/28 01:34:53;;;;;;;;;;;24.80;58.10;;;;;;6067178;23;19922;-80
2022/06/28 01:37:20;;;;;;;;;;;24.70;57.90;;;;;;6089111;23;19940;-80
2022/06/28 01:39:47;;;;;;;;;;;24.70;58.00;;;;;;6089830;23;19922;-80
2022/06/28 01:42:13;;;;;;;;;;;24.70;58.10;;;;;;6089152;23;19922;-80
2022/06/28 01:44:41;;;;;;;;;;;24.60;58.00;;;;;;6089012;23;19926;-80
2022/06/28 01:47:10;;;;;;;;;;;24.60;58.40;;;;;;6117037;23;19976;-81
2022/06/28 01:49:37;;;;;;;;;;;24.60;58.50;;;;;;6111294;23;19921;-80
2022/06/28 01:52:04;;;;;;;;;;;24.60;58.50;;;;;;6114171;23;20387;-79
2022/06/28 01:54:31;;;;;;;;;;;24.60;58.70;;;;;;6096609;23;19940;-80
2022/06/28 01:56:57;;;;;;;;;;;24.50;59.60;;;;;;6115688;23;19928;-79
2022/06/28 01:59:25;;;;;;;;;;;24.50;58.50;;;;;;6094537;23;19921;-79
2022/06/28 02:01:51;;;;;;;;;;;24.50;58.50;;;;;;6116491;23;20306;-79
2022/06/28 02:04:18;;;;;;;;;;;24.50;58.60;;;;;;6093900;23;20306;-79
2022/06/28 02:06:45;;;;;;;;;;;24.50;58.50;;;;;;6099936;23;20369;-80
2022/06/28 02:09:12;;;;;;;;;;;24.50;59.40;;;;;;6124877;23;19997;-79
2022/06/28 02:11:39;;;;;;;;;;;24.50;58.50;;;;;;6095020;23;19929;-79
2022/06/28 02:14:06;;;;;;;;;;;24.50;58.40;;;;;;6094121;23;19925;-80
2022/06/28 02:16:32;;;;;;;;;;;24.40;58.60;;;;;;6093446;23;20390;-80
2022/06/28 02:18:59;;;;;;;;;;;24.40;58.70;;;;;;6070830;23;20338;-80
2022/06/28 02:21:26;;;;;;;;;;;24.40;58.60;;;;;;6069665;23;20394;-80
2022/06/28 02:23:53;;;;;;;;;;;24.40;58.70;;;;;;6094103;23;19921;-80
2022/06/28 02:26:21;;;;;;;;;;;24.40;58.70;;;;;;6069875;23;19925;-79
2022/06/28 02:28:48;;;;;;;;;;;24.40;58.70;;;;;;6094503;23;19953;-80
2022/06/28 02:31:15;;;;;;;;;;;24.30;58.80;;;;;;6094221;23;19932;-80
2022/06/28 02:33:42;;;;;;;;;;;24.30;58.90;;;;;;6093374;23;20315;-80
2022/06/28 02:41:40;;;;;;;;;;;24.30;58.80;;;;;;6124059;23;20357;-80
2022/06/28 02:44:06;;;;;;;;;;;24.30;59.00;;;;;;6115108;23;19921;-80
2022/06/28 02:46:33;;;;;;;;;;;24.20;59.10;;;;;;6093992;23;19988;-79
2022/06/28 02:49:00;;;;;;;;;;;24.20;59.00;;;;;;6124561;23;20338;-80
2022/06/28 02:51:27;;;;;;;;;;;24.20;59.10;;;;;;6112627;23;20251;-81
2022/06/28 02:53:55;;;;;;;;;;;24.20;59.10;;;;;;6097460;23;19921;-80
2022/06/28 02:56:21;;;;;;;;;;;24.20;59.20;;;;;;6113263;23;19973;-80
2022/06/28 02:58:48;;;;;;;;;;;24.20;59.20;;;;;;6081106;23;19928;-80
2022/06/28 03:01:15;;;;;;;;;;;24.20;59.20;;;;;;6069842;23;19926;-80
2022/06/28 03:03:42;;;;;;;;;;;24.20;59.20;;;;;;6120589;23;19921;-80
2022/06/28 03:06:09;;;;;;;;;;;24.20;59.20;;;;;;6115003;23;19921;-80
2022/06/28 03:08:35;;;;;;;;;;;24.10;59.60;;;;;;6119540;23;19932;-81
2022/06/28 03:11:02;;;;;;;;;;;24.10;59.70;;;;;;6117245;23;19921;-80
2022/06/28 03:13:30;;;;;;;;;;;24.00;59.70;;;;;;6093124;23;19921;-80
2022/06/28 03:15:57;;;;;;;;;;;24.00;59.60;;;;;;6123172;23;19928;-80
2022/06/28 03:18:24;;;;;;;;;;;24.00;59.60;;;;;;6112634;23;19949;-80
2022/06/28 03:20:50;;;;;;;;;;;24.00;59.70;;;;;;6096677;23;20269;-80
2022/06/28 03:23:17;;;;;;;;;;;24.00;60.00;;;;;;6113464;23;20199;-81
2022/06/28 03:25:44;;;;;;;;;;;24.00;60.10;;;;;;6094726;23;19925;-80
2022/06/28 03:28:11;;;;;;;;;;;23.90;60.10;;;;;;6115193;23;19929;-80
2022/06/28 03:30:38;;;;;;;;;;;23.90;60.20;;;;;;6118511;23;19920;-80
2022/06/28 03:33:05;;;;;;;;;;;23.90;60.30;;;;;;6116019;23;20302;-80
2022/06/28 03:35:31;;;;;;;;;;;23.90;60.30;;;;;;6093187;23;19968;-80
2022/06/28 03:37:58;;;;;;;;;;;23.90;60.30;;;;;;6080600;23;19992;-80
2022/06/28 03:40:25;;;;;;;;;;;23.90;60.30;;;;;;6091603;23;19987;-80
2022/06/28 03:42:52;;;;;;;;;;;23.90;60.40;;;;;;6122913;23;19929;-80
2022/06/28 03:45:18;;;;;;;;;;;23.90;60.60;;;;;;6098369;23;20338;-80
2022/06/28 03:47:45;;;;;;;;;;;23.80;60.80;;;;;;6109079;23;19956;-80
2022/06/28 03:50:12;;;;;;;;;;;23.80;60.80;;;;;;6115371;23;20335;-80
2022/06/28 03:52:39;;;;;;;;;;;23.80;61.00;;;;;;6093463;23;19975;-80
2022/06/28 03:55:06;;;;;;;;;;;23.70;61.00;;;;;;6116445;23;20412;-81
2022/06/28 03:57:33;;;;;;;;;;;23.80;61.10;;;;;;6094845;23;20239;-81
2022/06/28 04:00:01;;;;;;;;;;;23.80;61.20;;;;;;6075452;23;19921;-80
2022/06/28 04:02:28;;;;;;;;;;;23.70;61.00;;;;;;6114107;23;19921;-80
2022/06/28 04:04:55;;;;;;;;;;;23.70;61.20;;;;;;6098413;23;19921;-80
2022/06/28 04:07:21;;;;;;;;;;;23.70;61.30;;;;;;6100723;23;20234;-80
2022/06/28 04:09:48;;;;;;;;;;;23.70;61.50;;;;;;6099105;23;19921;-80
2022/06/28 04:12:16;;;;;;;;;;;23.60;61.60;;;;;;6100148;23;19948;-81
2022/06/28 04:14:43;;;;;;;;;;;23.60;62.00;;;;;;6111655;23;19996;-80
2022/06/28 04:17:10;;;;;;;;;;;23.60;62.00;;;;;;6117744;23;20321;-81
2022/06/28 04:19:38;;;;;;;;;;;23.60;62.10;;;;;;6094992;23;19921;-81
2022/06/28 04:22:05;;;;;;;;;;;23.60;62.30;;;;;;6118577;23;19997;-81
2022/06/28 04:24:32;;;;;;;;;;;23.60;62.20;;;;;;6094294;23;19921;-81
2022/06/28 04:26:59;;;;;;;;;;;23.60;62.10;;;;;;6075175;23;19921;-80
2022/06/28 04:29:26;;;;;;;;;;;23.60;62.10;;;;;;6114495;23;19929;-81
2022/06/28 04:31:52;;;;;;;;;;;23.70;61.90;;;;;;6097103;23;19925;-81
2022/06/28 04:34:19;;;;;;;;;;;23.70;62.10;;;;;;6116183;23;19972;-80
2022/06/28 04:36:46;;;;;;;;;;;23.70;62.00;;;;;;6096017;23;19925;-81
2022/06/28 04:39:13;;;;;;;;;;;23.80;62.10;;;;;;6116965;23;19921;-81
2022/06/28 04:41:44;;;;;;;;;;;23.70;62.20;;;;;;6096025;23;19928;-80
2022/06/28 04:44:10;;;;;;;;;;;23.70;62.30;;;;;;6117817;23;19929;-80
2022/06/28 04:46:38;;;;;;;;;;;23.70;62.30;;;;;;6094349;23;19988;-81
2022/06/28 04:49:07;;;;;;;;;;;23.70;62.40;;;;;;6088150;23;20254;-80
2022/06/28 04:51:33;;;;;;;;;;;23.70;62.50;;;;;;6100025;23;19968;-80
2022/06/28 04:54:00;;;;;;;;;;;23.60;62.50;;;;;;6095318;23;19980;-81
2022/06/28 04:56:27;;;;;;;;;;;23.70;62.20;;;;;;6095321;23;19922;-81
2022/06/28 04:58:54;;;;;;;;;;;23.70;62.20;;;;;;6093971;23;19925;-80
2022/06/28 05:01:21;;;;;;;;;;;23.70;62.60;;;;;;6071049;23;19929;-80
2022/06/28 05:03:48;;;;;;;;;;;23.70;62.40;;;;;;6095424;23;19953;-80
2022/06/28 05:06:14;;;;;;;;;;;23.80;62.20;;;;;;6098111;23;19976;-80
2022/06/28 05:08:41;;;;;;;;;;;23.70;62.20;;;;;;6098069;23;20295;-81
2022/06/28 05:11:08;;;;;;;;;;;23.70;62.10;;;;;;6119411;23;20320;-81
2022/06/28 05:13:35;;;;;;;;;;;23.80;62.60;;;;;;6093156;23;19987;-80
2022/06/28 05:16:02;;;;;;;;;;;23.80;61.60;;;;;;6111700;23;19921;-80
2022/06/28 05:18:29;;;;;;;;;;;23.80;61.70;;;;;;6115618;23;20014;-81
2022/06/28 05:20:59;;;;;;;;;;;23.80;61.40;;;;;;6122350;23;20396;-81
2022/06/28 05:23:26;;;;;;;;;;;23.90;61.40;;;;;;6125385;23;19921;-81
2022/06/28 05:25:53;;;;;;;;;;;23.90;61.30;;;;;;6111072;23;19992;-80
2022/06/28 05:28:20;;;;;;;;;;;23.90;61.30;;;;;;6112129;23;19928;-79
2022/06/28 05:30:47;;;;;;;;;;;24.00;60.60;;;;;;6110941;23;19925;-80
2022/06/28 05:33:13;;;;;;;;;;;23.90;60.90;;;;;;6125616;23;20314;-80
2022/06/28 05:35:40;;;;;;;;;;;24.00;60.70;;;;;;6112845;23;20274;-80
2022/06/28 05:38:07;;;;;;;;;;;24.00;60.10;;;;;;6098603;23;19921;-81
2022/06/28 05:40:34;;;;;;;;;;;24.00;60.10;;;;;;6113943;23;19921;-80
2022/06/28 05:43:01;;;;;;;;;;;24.10;60.30;;;;;;6081790;23;19936;-80
2022/06/28 05:45:27;;;;;;;;;;;24.10;60.00;;;;;;6070625;23;19921;-80
2022/06/28 05:47:54;;;;;;;;;;;24.20;59.30;;;;;;6121289;23;19925;-80
2022/06/28 05:50:21;;;;;;;;;;;24.30;59.60;;;;;;6116114;23;20325;-81
2022/06/28 05:52:48;;;;;;;;;;;24.40;59.30;;;;;;6081492;23;19973;-81
2022/06/28 05:55:14;;;;;;;;;;;24.40;59.70;;;;;;6070437;23;19972;-81
2022/06/28 05:57:41;;;;;;;;;;;24.40;59.50;;;;;;6119376;23;19929;-82
2022/06/28 06:00:09;;;;;;;;;;;24.50;59.10;;;;;;6110668;23;19925;-81
2022/06/28 06:02:35;;;;;;;;;;;24.50;58.40;;;;;;6113609;23;19976;-81
2022/06/28 06:05:03;;;;;;;;;;;24.60;58.30;;;;;;6097177;23;20008;-81
2022/06/28 06:07:30;;;;;;;;;;;24.60;58.60;;;;;;6114815;23;19929;-81
2022/06/28 06:09:57;;;;;;;;;;;24.70;58.70;;;;;;6095863;23;19921;-80
2022/06/28 06:12:24;;;;;;;;;;;24.80;59.10;;;;;;6115297;23;19925;-80
2022/06/28 06:14:50;;;;;;;;;;;24.70;59.00;;;;;;6120066;23;19925;-80
2022/06/28 06:17:17;;;;;;;;;;;24.80;59.70;;;;;;6099034;23;19924;-81
2022/06/28 06:19:45;;;;;;;;;;;24.80;60.30;;;;;;6111709;23;19941;-80
2022/06/28 06:22:11;;;;;;;;;;;24.70;59.80;;;;;;6093150;23;19922;-80
2022/06/28 06:24:38;;;;;;;;;;;24.60;60.00;;;;;;6099684;23;19921;-81
2022/06/28 06:27:05;;;;;;;;;;;24.60;60.50;;;;;;6094865;23;19982;-81
2022/06/28 06:29:32;;;;;;;;;;;24.60;59.90;;;;;;6094017;23;19921;-80
2022/06/28 06:31:58;;;;;;;;;;;24.60;58.30;;;;;;6093709;23;19921;-80
2022/06/28 06:34:25;;;;;;;;;;;24.70;58.10;;;;;;6093869;23;19988;-80
2022/06/28 06:36:52;;;;;;;;;;;24.70;58.90;;;;;;6069448;23;19977;-80
2022/06/28 06:39:19;;;;;;;;;;;24.70;58.90;;;;;;6096163;23;19921;-81
2022/06/28 06:41:46;;;;;;;;;;;24.70;59.50;;;;;;6095273;23;19925;-80
2022/06/28 06:44:13;;;;;;;;;;;24.60;60.50;;;;;;6124477;23;19921;-81
2022/06/28 06:46:40;;;;;;;;;;;24.60;60.90;;;;;;6124338;23;19992;-80
2022/06/28 06:49:08;;;;;;;;;;;24.60;61.80;;;;;;6123915;23;19997;-80
2022/06/28 06:51:35;;;;;;;;;;;24.50;62.70;;;;;;6114065;23;20342;-80
2022/06/28 06:54:02;;;;;;;;;;;24.30;63.80;;;;;;6096658;23;19927;-80
2022/06/28 06:56:29;;;;;;;;;;;24.20;63.60;;;;;;6115437;23;19945;-80
2022/06/28 06:58:56;;;;;;;;;;;24.10;63.90;;;;;;6094568;23;19976;-80
2022/06/28 07:01:23;;;;;;;;;;;24.10;63.00;;;;;;6116673;23;19921;-81
2022/06/28 07:04:09;;;;;;;;;;;24.00;63.10;;;;;;6100065;23;20330;-81
2022/06/28 07:06:37;;;;;;;;;;;24.00;62.60;;;;;;6112725;23;19972;-80
2022/06/28 07:09:04;;;;;;;;;;;23.90;62.80;;;;;;6086918;23;19920;-80
2022/06/28 07:11:31;;;;;;;;;;;24.00;62.60;;;;;;6077169;23;20401;-80
2022/06/28 07:13:57;;;;;;;;;;;24.00;61.80;;;;;;6107142;23;20283;-80
2022/06/28 07:16:24;;;;;;;;;;;23.90;62.20;;;;;;6115110;23;19933;-80
2022/06/28 07:18:56;;;;;;;;;;;23.80;61.80;;;;;;6095186;23;20253;-80
2022/06/28 07:21:23;;;;;;;;;;;23.80;62.20;;;;;;6116767;23;19925;-80
2022/06/28 07:23:50;;;;;;;;;;;23.70;62.10;;;;;;6092535;23;19924;-80
2022/06/28 07:26:18;;;;;;;;;;;23.60;62.10;;;;;;6088500;23;20331;-81
2022/06/28 07:28:45;;;;;;;;;;;23.50;62.10;;;;;;6093442;23;19922;-80
2022/06/28 07:31:12;;;;;;;;;;;23.40;62.20;;;;;;6092551;23;19937;-80
2022/06/28 07:33:39;;;;;;;;;;;23.30;62.90;;;;;;6093611;23;20258;-81
2022/06/28 07:36:06;;;;;;;;;;;23.30;63.20;;;;;;6094782;23;19949;-81
2022/06/28 07:38:33;;;;;;;;;;;23.20;63.60;;;;;;6093959;23;19921;-80
2022/06/28 07:41:00;;;;;;;;;;;23.20;63.70;;;;;;6093643;23;19921;-79
2022/06/28 07:43:27;;;;;;;;;;;23.10;63.80;;;;;;6058675;23;20299;-80
2022/06/28 07:45:54;;;;;;;;;;;23.10;63.20;;;;;;6110400;23;20298;-79
2022/06/28 07:48:20;;;;;;;;;;;23.10;63.00;;;;;;6118503;23;19949;-79
2022/06/28 07:53:33;;;;;;;;;;;23.00;65.10;;;;;;6125135;23;19991;-80
2022/06/28 07:56:00;;;;;;;;;;;22.80;65.50;;;;;;6115299;23;20294;-80
2022/06/28 07:58:27;;;;;;;;;;;22.80;65.70;;;;;;6098590;23;20340;-80
2022/06/28 08:00:54;;;;;;;;;;;22.70;66.00;;;;;;6116395;23;19921;-80
2022/06/28 08:03:20;;;;;;;;;;;22.70;65.90;;;;;;6097191;23;19924;-79
2022/06/28 08:05:47;;;;;;;;;;;22.60;66.30;;;;;;6101083;23;19976;-79
2022/06/28 08:08:14;;;;;;;;;;;22.60;67.00;;;;;;6111175;23;19925;-79
2022/06/28 08:10:41;;;;;;;;;;;22.60;67.70;;;;;;6118891;23;19925;-80
2022/06/28 08:13:08;;;;;;;;;;;22.60;67.80;;;;;;6095841;23;19925;-79
2022/06/28 08:15:43;;;;;;;;;;;22.60;67.80;;;;;;6126158;23;19921;-80
2022/06/28 08:18:09;;;;;;;;;;;22.60;68.00;;;;;;6114327;23;19996;-80
2022/06/28 08:20:36;;;;;;;;;;;22.60;68.30;;;;;;6124276;23;19945;-80
2022/06/28 08:23:03;;;;;;;;;;;22.70;68.60;;;;;;6115543;23;19926;-80
2022/06/28 08:25:30;;;;;;;;;;;22.70;68.50;;;;;;6123090;23;20330;-80
2022/06/28 08:27:57;;;;;;;;;;;22.70;68.10;;;;;;6116858;23;19988;-80
2022/06/28 08:30:25;;;;;;;;;;;22.90;67.60;;;;;;6095695;23;19921;-80
2022/06/28 08:32:52;;;;;;;;;;;23.10;66.60;;;;;;6126372;23;19929;-80
2022/06/28 08:35:20;;;;;;;;;;;23.30;65.10;;;;;;6099947;23;19921;-79
2022/06/28 08:37:46;;;;;;;;;;;23.60;65.60;;;;;;6097197;23;20236;-80
2022/06/28 08:40:21;;;;;;;;;;;23.60;65.20;;;;;;6096873;23;19921;-79
2022/06/28 08:42:51;;;;;;;;;;;23.60;65.90;;;;;;6125135;23;19920;-80
2022/06/28 08:45:18;;;;;;;;;;;23.80;64.30;;;;;;6100111;23;19925;-79
2022/06/28 08:47:47;;;;;;;;;;;24.10;64.20;;;;;;6095312;23;19948;-78
2022/06/28 08:50:30;;;;;;;;;;;24.40;64.40;;;;;;6071876;23;19922;-79
2022/06/28 08:52:59;;;;;;;;;;;24.70;63.80;;;;;;6088225;23;20231;-79
2022/06/28 08:55:26;;;;;;;;;;;25.10;63.10;;;;;;6102940;23;20334;-79
2022/06/28 08:57:54;;;;;;;;;;;25.40;60.50;;;;;;6095920;23;19931;-79
2022/06/28 09:00:21;;;;;;;;;;;25.60;58.70;;;;;;6096585;23;19932;-80
2022/06/28 09:02:52;;;;;;;;;;;25.80;57.40;;;;;;6092864;23;19925;-79
2022/06/28 09:05:22;;;;;;;;;;;25.90;54.70;;;;;;6071453;23;20342;-78
2022/06/28 09:07:50;;;;;;;;;;;25.80;55.10;;;;;;6094636;23;19922;-79
2022/06/28 09:10:17;;;;;;;;;;;25.70;56.30;;;;;;6070352;23;20358;-80
2022/06/28 09:13:11;;;;;;;;;;;25.60;57.10;;;;;;6123728;23;19921;-79
2022/06/28 09:15:49;;;;;;;;;;;25.40;57.80;;;;;;6112105;23;19972;-79
2022/06/28 09:18:16;;;;;;;;;;;25.30;58.20;;;;;;6094006;23;20311;-80
2022/06/28 09:20:43;;;;;;;;;;;25.30;59.50;;;;;;6078010;23;20399;-79
2022/06/28 09:23:27;;;;;;;;;;;25.30;60.00;;;;;;6093090;23;20037;-79
2022/06/28 09:25:54;;;;;;;;;;;25.30;59.80;;;;;;6093798;23;19921;-80
2022/06/28 09:28:23;;;;;;;;;;;25.30;60.00;;;;;;6094437;23;19929;-80
2022/06/28 09:30:49;;;;;;;;;;;25.20;60.90;;;;;;6094848;23;20011;-80
2022/06/28 09:33:26;;;;;;;;;;;25.10;61.20;;;;;;6093056;23;19969;-80
2022/06/28 09:35:53;;;;;;;;;;;25.10;60.60;;;;;;6094892;23;20310;-80
2022/06/28 09:38:30;;;;;;;;;;;25.00;60.80;;;;;;6090766;23;20338;-80
2022/06/28 09:40:57;;;;;;;;;;;25.00;61.40;;;;;;6068956;23;19925;-80
2022/06/28 09:43:29;;;;;;;;;;;24.90;61.30;;;;;;6069811;23;19952;-79
2022/06/28 09:45:56;;;;;;;;;;;24.80;61.50;;;;;;6091299;23;19922;-80
2022/06/28 09:48:23;;;;;;;;;;;24.80;61.20;;;;;;6070892;23;20336;-80
2022/06/28 09:50:57;;;;;;;;;;;24.70;61.60;;;;;;6094470;23;20334;-80
2022/06/28 09:53:27;;;;;;;;;;;24.70;62.20;;;;;;6093779;23;19952;-80
2022/06/28 09:56:02;;;;;;;;;;;24.60;62.10;;;;;;6094363;23;20318;-81
2022/06/28 09:58:30;;;;;;;;;;;24.60;62.60;;;;;;6093882;23;19922;-80
2022/06/28 10:00:57;;;;;;;;;;;24.60;62.50;;;;;;6070290;23;19921;-80
2022/06/28 10:03:24;;;;;;;;;;;24.70;62.30;;;;;;6069394;23;19928;-80
2022/06/28 10:05:51;;;;;;;;;;;24.70;62.40;;;;;;6070771;23;19929;-80
2022/06/28 10:08:18;;;;;;;;;;;24.60;62.60;;;;;;6069933;23;19921;-80
2022/06/28 10:10:45;;;;;;;;;;;24.60;62.90;;;;;;6094707;23;19921;-80
2022/06/28 10:16:18;;;;;;;;;;;24.50;64.10;;;;;;6094393;23;19949;-80
2022/06/28 10:18:45;;;;;;;;;;;24.40;65.00;;;;;;6094495;23;19922;-80
2022/06/28 10:21:12;;;;;;;;;;;24.40;65.50;;;;;;6093615;23;19954;-80
2022/06/28 10:23:43;;;;;;;;;;;24.30;65.60;;;;;;6094655;23;20353;-80
2022/06/28 10:26:15;;;;;;;;;;;24.30;66.00;;;;;;6094075;23;19928;-79
2022/06/28 10:28:46;;;;;;;;;;;24.30;66.20;;;;;;6118529;23;19921;-81
2022/06/28 10:31:22;;;;;;;;;;;24.30;66.50;;;;;;6069718;23;19925;-81
2022/06/28 10:34:12;;;;;;;;;;;24.20;66.60;;;;;;6113415;23;20291;-80
2022/06/28 10:36:48;;;;;;;;;;;24.20;66.90;;;;;;6094140;23;19987;-79
2022/06/28 10:39:16;;;;;;;;;;;24.30;67.10;;;;;;6117251;23;20330;-80
2022/06/28 10:41:47;;;;;;;;;;;24.30;67.40;;;;;;6095368;23;19922;-79
2022/06/28 10:44:14;;;;;;;;;;;24.40;68.00;;;;;;6093150;23;19925;-80
2022/06/28 10:46:41;;;;;;;;;;;24.40;68.20;;;;;;6095306;23;19929;-80
2022/06/28 10:49:09;;;;;;;;;;;24.50;68.10;;;;;;6092710;23;20313;-80
2022/06/28 10:51:40;;;;;;;;;;;24.70;69.00;;;;;;6093646;23;19925;-81
2022/06/28 10:54:10;;;;;;;;;;;24.80;68.30;;;;;;6093122;23;19922;-80
2022/06/28 10:56:44;;;;;;;;;;;25.10;67.50;;;;;;6093649;23;19921;-80
2022/06/28 10:59:12;;;;;;;;;;;25.20;66.30;;;;;;6092833;23;19929;-80
2022/06/28 11:01:39;;;;;;;;;;;25.30;66.20;;;;;;6095666;23;19921;-80
2022/06/28 11:04:12;;;;;;;;;;;25.50;65.20;;;;;;6117933;23;19976;-80
2022/06/28 11:06:39;;;;;;;;;;;25.60;63.90;;;;;;6123489;23;19928;-80
2022/06/28 11:09:15;;;;;;;;;;;25.80;63.40;;;;;;6112164;23;19922;-80
2022/06/28 11:12:01;;;;;;;;;;;25.90;63.40;;;;;;6093157;23;19925;-80
2022/06/28 11:14:32;;;;;;;;;;;25.90;63.10;;;;;;6071046;23;19922;-80
2022/06/28 11:17:13;;;;;;;;;;;25.90;62.90;;;;;;6113883;23;19969;-80
2022/06/28 11:19:50;;;;;;;;;;;25.90;61.70;;;;;;6097789;23;19924;-82
2022/06/28 11:22:22;;;;;;;;;;;25.90;61.90;;;;;;6110939;23;19940;-80
2022/06/28 11:24:49;;;;;;;;;;;26.00;62.20;;;;;;6069246;23;19953;-80
2022/06/28 11:27:22;;;;;;;;;;;26.00;60.90;;;;;;6093202;23;20338;-80
2022/06/28 11:30:01;;;;;;;;;;;26.10;61.00;;;;;;6069192;23;19921;-80
2022/06/28 11:32:38;;;;;;;;;;;26.00;60.40;;;;;;6117011;23;20295;-80
2022/06/28 11:35:10;;;;;;;;;;;25.90;59.50;;;;;;6093644;23;19922;-80
2022/06/28 11:37:49;;;;;;;;;;;25.80;60.00;;;;;;6093101;23;19921;-80
2022/06/28 11:40:17;;;;;;;;;;;25.70;59.50;;;;;;6118261;23;19925;-80
2022/06/28 11:42:45;;;;;;;;;;;25.50;60.80;;;;;;6093208;23;19929;-80
2022/06/28 11:45:12;;;;;;;;;;;25.30;61.70;;;;;;6069601;23;19922;-81
2022/06/28 11:47:43;;;;;;;;;;;25.20;61.70;;;;;;6094522;23;19921;-80
2022/06/28 11:50:16;;;;;;;;;;;25.00;61.90;;;;;;6070351;23;19921;-80
2022/06/28 11:52:46;;;;;;;;;;;24.80;61.80;;;;;;6092896;23;19921;-80
2022/06/28 11:55:13;;;;;;;;;;;24.60;62.60;;;;;;6118564;23;19921;-80
2022/06/28 11:57:40;;;;;;;;;;;24.50;63.10;;;;;;6093122;23;19921;-80
2022/06/28 12:00:07;;;;;;;;;;;24.40;63.20;;;;;;6094403;23;19964;-80
2022/06/28 12:02:41;;;;;;;;;;;24.30;63.40;;;;;;6092781;23;20266;-80
2022/06/28 12:05:08;;;;;;;;;;;24.20;62.80;;;;;;6069898;23;19968;-81
2022/06/28 12:07:36;;;;;;;;;;;24.20;62.20;;;;;;6069214;23;19948;-80
2022/06/28 12:10:03;;;;;;;;;;;24.10;62.50;;;;;;6092089;23;19933;-80
2022/06/28 12:12:30;;;;;;;;;;;24.10;62.80;;;;;;6092934;23;19929;-80
2022/06/28 12:14:57;;;;;;;;;;;24.10;62.80;;;;;;6092839;23;19976;-80
2022/06/28 12:17:24;;;;;;;;;;;24.10;62.70;;;;;;6094910;23;20028;-80
2022/06/28 12:19:51;;;;;;;;;;;24.10;62.20;;;;;;6094389;23;19929;-80
2022/06/28 12:22:20;;;;;;;;;;;24.20;61.70;;;;;;6096364;23;19972;-80
2022/06/28 12:24:56;;;;;;;;;;;24.10;60.90;;;;;;6094046;23;20366;-81
2022/06/28 12:27:25;;;;;;;;;;;24.10;62.40;;;;;;6094740;23;19929;-80
2022/06/28 12:29:51;;;;;;;;;;;24.00;63.50;;;;;;6095715;23;19921;-80
2022/06/28 12:32:19;;;;;;;;;;;23.80;64.10;;;;;;6071866;23;19929;-82
2022/06/28 12:35:07;;;;;;;;;;;23.50;63.80;;;;;;6128059;23;20004;-82
2022/06/28 12:37:34;;;;;;;;;;;23.30;66.20;;;;;;6116363;23;19973;-81
2022/06/28 12:40:02;;;;;;;;;;;23.20;66.70;;;;;;6100194;23;19936;-82
2022/06/28 12:42:30;;;;;;;;;;;22.90;67.60;;;;;;6115945;23;19921;-80
2022/06/28 12:45:00;;;;;;;;;;;22.70;68.70;;;;;;6097896;23;19921;-81
2022/06/28 12:47:37;;;;;;;;;;;22.50;69.70;;;;;;6116052;23;19921;-82
2022/06/28 12:50:06;;;;;;;;;;;22.30;70.60;;;;;;6124266;23;20331;-82
2022/06/28 12:52:34;;;;;;;;;;;22.10;71.20;;;;;;6115723;23;19977;-82
2022/06/28 12:55:01;;;;;;;;;;;21.90;72.30;;;;;;6099988;23;19934;-82
2022/06/28 12:57:28;;;;;;;;;;;21.80;73.70;;;;;;6116787;23;20258;-82
2022/06/28 12:59:55;;;;;;;;;;;21.60;74.90;;;;;;6096923;23;20311;-81
2022/06/28 13:02:22;;;;;;;;;;;21.50;76.90;;;;;;6116041;23;19927;-82
2022/06/28 13:04:50;;;;;;;;;;;21.40;78.60;;;;;;6093470;23;19991;-84
2022/06/28 13:07:21;;;;;;;;;;;21.10;80.00;;;;;;6116431;23;20298;-82
2022/06/28 13:09:48;;;;;;;;;;;20.90;81.20;;;;;;6095082;23;19948;-81
2022/06/28 13:12:15;;;;;;;;;;;20.70;81.70;;;;;;6116452;23;19925;-81
2022/06/28 13:14:49;;;;;;;;;;;20.60;82.50;;;;;;6096320;23;20015;-81
2022/06/28 13:17:20;;;;;;;;;;;20.50;83.30;;;;;;6116395;23;19995;-82
2022/06/28 13:19:47;;;;;;;;;;;20.40;83.30;;;;;;6093992;23;19925;-82
2022/06/28 13:22:31;;;;;;;;;;;20.40;83.60;;;;;;6114521;23;19926;-82
2022/06/28 13:24:57;;;;;;;;;;;20.30;85.10;;;;;;6122489;23;19988;-82
2022/06/28 13:27:24;;;;;;;;;;;20.30;84.20;;;;;;6124743;23;19929;-83
2022/06/28 13:29:51;;;;;;;;;;;20.30;84.40;;;;;;6109029;23;19996;-83
2022/06/28 13:32:18;;;;;;;;;;;20.40;85.50;;;;;;6115672;23;19972;-81
2022/06/28 13:34:45;;;;;;;;;;;20.40;85.80;;;;;;6093814;23;20000;-82
2022/06/28 13:37:12;;;;;;;;;;;20.40;86.30;;;;;;6125846;23;19965;-81
2022/06/28 13:39:39;;;;;;;;;;;20.40;85.60;;;;;;6125643;23;19921;-83
2022/06/28 13:42:07;;;;;;;;;;;20.30;85.50;;;;;;6110696;23;19972;-81
2022/06/28 13:44:34;;;;;;;;;;;20.30;85.60;;;;;;6114326;23;20377;-82
2022/06/28 13:47:12;;;;;;;;;;;20.30;85.80;;;;;;6101672;23;19924;-81
2022/06/28 13:49:39;;;;;;;;;;;20.30;85.60;;;;;;6099690;23;19921;-83
2022/06/28 13:52:06;;;;;;;;;;;20.20;85.30;;;;;;6095564;23;19925;-82
2022/06/28 13:54:32;;;;;;;;;;;20.20;85.00;;;;;;6071197;23;19921;-84
2022/06/28 13:57:03;;;;;;;;;;;20.20;84.80;;;;;;6094813;23;20000;-82
2022/06/28 13:59:30;;;;;;;;;;;20.20;84.80;;;;;;6095292;23;19921;-82
2022/06/28 14:01:57;;;;;;;;;;;20.10;84.70;;;;;;6094278;23;19922;-81
2022/06/28 14:04:24;;;;;;;;;;;20.20;85.10;;;;;;6094805;23;19925;-81
2022/06/28 14:06:51;;;;;;;;;;;20.10;86.00;;;;;;6095431;23;19925;-83
2022/06/28 14:09:19;;;;;;;;;;;20.10;86.60;;;;;;6094427;23;19925;-82
2022/06/28 14:11:46;;;;;;;;;;;20.10;86.50;;;;;;6095167;23;19931;-81
2022/06/28 14:14:15;;;;;;;;;;;20.10;86.40;;;;;;6098897;23;20312;-81
2022/06/28 14:16:42;;;;;;;;;;;20.20;85.40;;;;;;6114262;23;19921;-82
2022/06/28 14:19:09;;;;;;;;;;;20.20;84.80;;;;;;6123281;23;20397;-82
2022/06/28 14:21:36;;;;;;;;;;;20.20;84.50;;;;;;6125636;23;19991;-81
2022/06/28 14:24:03;;;;;;;;;;;20.20;84.30;;;;;;6097618;23;20008;-81
2022/06/28 14:26:29;;;;;;;;;;;20.20;84.40;;;;;;6097870;23;19969;-81
2022/06/28 14:28:56;;;;;;;;;;;20.20;84.40;;;;;;6097142;23;19925;-81
2022/06/28 14:31:24;;;;;;;;;;;20.10;84.20;;;;;;6070864;23;20001;-81
2022/06/28 14:34:13;;;;;;;;;;;20.10;84.80;;;;;;6094089;23;21573;-82